sensor_id;sensor_type;location;lat;lon;timestamp;P1;durP1;ratioP1;P2;durP2;ratioP2
14125;SDS011;7141;49.484;11.242;2023-03-01T00:01:42;18.53;;;10.97;;
14125;SDS011;7141;49.484;11.242;2023-03-01T00:04:08;23.77;;;12.70;;
14125;SDS011;7141;49.484;11.242;2023-03-01T00:06:34;25.63;;;13.20;;
14125;SDS011;7141;49.484;11.242;2023-03-01T00:09:00;21.90;;;11.80;;
14125;SDS011;7141;49.484;11.242;2023-03-01T00:11:27;30.80;;;12.27;;
14125;SDS011;7141;49.484;11.242;2023-03-01T00:13:55;21.70;;;11.67;;
14125;SDS011;7141;49.484;11.242;2023-03-01T00:16:25;24.03;;;12.20;;
14125;SDS011;7141;49.484;11.242;2023-03-01T00:18:51;23.77;;;11.97;;
14125;SDS011;7141;49.484;11.242;2023-03-01T00:21:19;23.83;;;12.57;;
14125;SDS011;7141;49.484;11.242;2023-03-01T00:23:46;22.57;;;11.60;;
14125;SDS011;7141;49.484;11.242;2023-03-01T00:26:13;21.60;;;11.70;;
14125;SDS011;7141;49.484;11.242;2023-03-01T00:28:40;23.93;;;12.67;;
14125;SDS011;7141;49.484;11.242;2023-03-01T00:31:06;22.67;;;11.93;;
14125;SDS011;7141;49.484;11.242;2023-03-01T00:33:33;23.10;;;11.67;;
14125;SDS011;7141;49.484;11.242;2023-03-01T00:35:59;21.70;;;11.67;;
14125;SDS011;7141;49.484;11.242;2023-03-01T00:38:25;18.13;;;10.97;;
14125;SDS011;7141;49.484;11.242;2023-03-01T00:40:51;21.33;;;12.10;;
14125;SDS011;7141;49.484;11.242;2023-03-01T00:43:17;23.77;;;12.13;;
14125;SDS011;7141;49.484;11.242;2023-03-01T00:45:43;21.47;;;11.80;;
14125;SDS011;7141;49.484;11.242;2023-03-01T00:48:09;22.40;;;11.47;;
14125;SDS011;7141;49.484;11.242;2023-03-01T00:50:35;22.50;;;11.93;;
14125;SDS011;7141;49.484;11.242;2023-03-01T00:53:01;24.97;;;12.37;;
14125;SDS011;7141;49.484;11.242;2023-03-01T00:55:27;21.63;;;11.60;;
14125;SDS011;7141;49.484;11.242;2023-03-01T00:57:53;23.23;;;12.10;;
14125;SDS011;7141;49.484;11.242;2023-03-01T01:00:19;23.23;;;12.20;;
14125;SDS011;7141;49.484;11.242;2023-03-01T01:02:45;22.20;;;12.00;;
14125;SDS011;7141;49.484;11.242;2023-03-01T01:05:12;23.27;;;12.37;;
14125;SDS011;7141;49.484;11.242;2023-03-01T01:07:38;19.73;;;10.97;;
14125;SDS011;7141;49.484;11.242;2023-03-01T01:10:05;20.53;;;11.73;;
14125;SDS011;7141;49.484;11.242;2023-03-01T01:12:31;23.77;;;12.03;;
14125;SDS011;7141;49.484;11.242;2023-03-01T01:14:58;23.53;;;11.70;;
14125;SDS011;7141;49.484;11.242;2023-03-01T01:17:24;24.83;;;12.43;;
14125;SDS011;7141;49.484;11.242;2023-03-01T01:19:50;23.00;;;12.17;;
14125;SDS011;7141;49.484;11.242;2023-03-01T01:22:16;22.90;;;12.00;;
14125;SDS011;7141;49.484;11.242;2023-03-01T01:24:42;22.73;;;11.73;;
14125;SDS011;7141;49.484;11.242;2023-03-01T01:27:08;21.00;;;11.90;;
14125;SDS011;7141;49.484;11.242;2023-03-01T01:29:34;22.63;;;11.63;;
14125;SDS011;7141;49.484;11.242;2023-03-01T01:32:00;23.53;;;12.13;;
14125;SDS011;7141;49.484;11.242;2023-03-01T01:34:26;22.40;;;11.87;;
14125;SDS011;7141;49.484;11.242;2023-03-01T01:36:52;21.73;;;11.93;;
14125;SDS011;7141;49.484;11.242;2023-03-01T01:39:19;23.57;;;11.47;;
14125;SDS011;7141;49.484;11.242;2023-03-01T01:41:45;26.63;;;11.77;;
14125;SDS011;7141;49.484;11.242;2023-03-01T01:46:54;21.07;;;11.37;;
14125;SDS011;7141;49.484;11.242;2023-03-01T01:51:48;27.03;;;13.13;;
14125;SDS011;7141;49.484;11.242;2023-03-01T01:54:19;20.57;;;11.73;;
14125;SDS011;7141;49.484;11.242;2023-03-01T01:56:48;23.57;;;11.87;;
14125;SDS011;7141;49.484;11.242;2023-03-01T01:59:15;25.07;;;11.50;;
14125;SDS011;7141;49.484;11.242;2023-03-01T02:01:42;26.60;;;11.50;;
14125;SDS011;7141;49.484;11.242;2023-03-01T02:04:08;23.50;;;12.47;;
14125;SDS011;7141;49.484;11.242;2023-03-01T02:06:37;23.77;;;12.00;;
14125;SDS011;7141;49.484;11.242;2023-03-01T02:09:08;21.60;;;11.10;;
14125;SDS011;7141;49.484;11.242;2023-03-01T02:11:36;20.40;;;11.57;;
14125;SDS011;7141;49.484;11.242;2023-03-01T02:14:03;22.70;;;12.30;;
14125;SDS011;7141;49.484;11.242;2023-03-01T02:16:28;21.37;;;11.87;;
14125;SDS011;7141;49.484;11.242;2023-03-01T02:18:55;24.00;;;12.60;;
14125;SDS011;7141;49.484;11.242;2023-03-01T02:21:26;22.80;;;12.73;;
14125;SDS011;7141;49.484;11.242;2023-03-01T02:23:55;24.97;;;11.63;;
14125;SDS011;7141;49.484;11.242;2023-03-01T02:26:27;22.80;;;13.03;;
14125;SDS011;7141;49.484;11.242;2023-03-01T02:28:56;24.50;;;12.17;;
14125;SDS011;7141;49.484;11.242;2023-03-01T02:31:21;25.97;;;12.93;;
14125;SDS011;7141;49.484;11.242;2023-03-01T02:34:07;25.47;;;12.50;;
14125;SDS011;7141;49.484;11.242;2023-03-01T02:36:50;24.93;;;11.27;;
14125;SDS011;7141;49.484;11.242;2023-03-01T02:39:19;21.30;;;11.97;;
14125;SDS011;7141;49.484;11.242;2023-03-01T02:41:47;20.50;;;11.00;;
14125;SDS011;7141;49.484;11.242;2023-03-01T02:44:13;22.97;;;12.03;;
14125;SDS011;7141;49.484;11.242;2023-03-01T02:46:47;20.27;;;11.57;;
14125;SDS011;7141;49.484;11.242;2023-03-01T02:49:32;22.90;;;12.73;;
14125;SDS011;7141;49.484;11.242;2023-03-01T02:52:17;24.90;;;11.93;;
14125;SDS011;7141;49.484;11.242;2023-03-01T02:57:20;21.53;;;11.37;;
14125;SDS011;7141;49.484;11.242;2023-03-01T02:59:47;27.50;;;11.87;;
14125;SDS011;7141;49.484;11.242;2023-03-01T03:02:21;22.30;;;12.10;;
14125;SDS011;7141;49.484;11.242;2023-03-01T03:05:01;21.13;;;11.37;;
14125;SDS011;7141;49.484;11.242;2023-03-01T03:07:27;22.37;;;11.97;;
14125;SDS011;7141;49.484;11.242;2023-03-01T03:09:53;24.20;;;11.70;;
14125;SDS011;7141;49.484;11.242;2023-03-01T03:12:19;20.50;;;11.93;;
14125;SDS011;7141;49.484;11.242;2023-03-01T03:14:44;23.10;;;11.77;;
14125;SDS011;7141;49.484;11.242;2023-03-01T03:17:10;21.83;;;11.30;;
14125;SDS011;7141;49.484;11.242;2023-03-01T03:19:36;22.77;;;11.20;;
14125;SDS011;7141;49.484;11.242;2023-03-01T03:22:02;22.20;;;11.90;;
14125;SDS011;7141;49.484;11.242;2023-03-01T03:24:28;23.17;;;11.10;;
14125;SDS011;7141;49.484;11.242;2023-03-01T03:27:02;21.67;;;11.90;;
14125;SDS011;7141;49.484;11.242;2023-03-01T03:29:28;28.20;;;12.70;;
14125;SDS011;7141;49.484;11.242;2023-03-01T03:31:54;28.00;;;12.97;;
14125;SDS011;7141;49.484;11.242;2023-03-01T03:34:20;21.77;;;11.23;;
14125;SDS011;7141;49.484;11.242;2023-03-01T03:36:46;25.40;;;11.80;;
14125;SDS011;7141;49.484;11.242;2023-03-01T03:39:12;27.87;;;12.80;;
14125;SDS011;7141;49.484;11.242;2023-03-01T03:41:38;25.57;;;12.20;;
14125;SDS011;7141;49.484;11.242;2023-03-01T03:44:04;20.43;;;11.50;;
14125;SDS011;7141;49.484;11.242;2023-03-01T03:46:30;23.17;;;12.37;;
14125;SDS011;7141;49.484;11.242;2023-03-01T03:48:56;23.13;;;11.90;;
14125;SDS011;7141;49.484;11.242;2023-03-01T03:51:22;19.87;;;12.13;;
14125;SDS011;7141;49.484;11.242;2023-03-01T03:53:48;24.03;;;12.10;;
14125;SDS011;7141;49.484;11.242;2023-03-01T03:56:14;23.80;;;12.27;;
14125;SDS011;7141;49.484;11.242;2023-03-01T03:58:40;23.67;;;12.27;;
14125;SDS011;7141;49.484;11.242;2023-03-01T04:01:06;19.93;;;11.83;;
14125;SDS011;7141;49.484;11.242;2023-03-01T04:03:32;22.57;;;11.43;;
14125;SDS011;7141;49.484;11.242;2023-03-01T04:06:00;27.67;;;11.23;;
14125;SDS011;7141;49.484;11.242;2023-03-01T04:08:26;24.90;;;12.20;;
14125;SDS011;7141;49.484;11.242;2023-03-01T04:10:55;20.87;;;11.97;;
14125;SDS011;7141;49.484;11.242;2023-03-01T04:13:22;24.40;;;11.73;;
14125;SDS011;7141;49.484;11.242;2023-03-01T04:15:50;23.47;;;12.67;;
14125;SDS011;7141;49.484;11.242;2023-03-01T04:18:17;24.60;;;12.20;;
14125;SDS011;7141;49.484;11.242;2023-03-01T04:20:44;24.93;;;12.77;;
14125;SDS011;7141;49.484;11.242;2023-03-01T04:28:07;25.23;;;11.50;;
14125;SDS011;7141;49.484;11.242;2023-03-01T04:30:34;24.43;;;12.13;;
14125;SDS011;7141;49.484;11.242;2023-03-01T04:33:04;21.97;;;11.00;;
14125;SDS011;7141;49.484;11.242;2023-03-01T04:35:31;24.93;;;12.23;;
14125;SDS011;7141;49.484;11.242;2023-03-01T04:37:57;24.33;;;13.43;;
14125;SDS011;7141;49.484;11.242;2023-03-01T04:40:23;21.50;;;12.00;;
14125;SDS011;7141;49.484;11.242;2023-03-01T04:42:49;26.03;;;13.13;;
14125;SDS011;7141;49.484;11.242;2023-03-01T04:45:15;25.77;;;12.37;;
14125;SDS011;7141;49.484;11.242;2023-03-01T04:47:41;21.67;;;11.97;;
14125;SDS011;7141;49.484;11.242;2023-03-01T04:50:09;29.37;;;12.33;;
14125;SDS011;7141;49.484;11.242;2023-03-01T04:52:35;21.63;;;11.90;;
14125;SDS011;7141;49.484;11.242;2023-03-01T04:55:02;24.67;;;12.50;;
14125;SDS011;7141;49.484;11.242;2023-03-01T04:57:28;22.53;;;12.80;;
14125;SDS011;7141;49.484;11.242;2023-03-01T04:59:54;23.13;;;12.20;;
14125;SDS011;7141;49.484;11.242;2023-03-01T05:02:20;24.73;;;13.37;;
14125;SDS011;7141;49.484;11.242;2023-03-01T05:04:46;21.83;;;12.03;;
14125;SDS011;7141;49.484;11.242;2023-03-01T05:07:12;25.13;;;13.10;;
14125;SDS011;7141;49.484;11.242;2023-03-01T05:09:45;32.43;;;15.73;;
14125;SDS011;7141;49.484;11.242;2023-03-01T05:12:11;39.47;;;18.17;;
14125;SDS011;7141;49.484;11.242;2023-03-01T05:14:37;25.40;;;13.90;;
14125;SDS011;7141;49.484;11.242;2023-03-01T05:17:03;23.27;;;12.37;;
14125;SDS011;7141;49.484;11.242;2023-03-01T05:19:30;23.27;;;12.33;;
14125;SDS011;7141;49.484;11.242;2023-03-01T05:21:56;24.23;;;11.93;;
14125;SDS011;7141;49.484;11.242;2023-03-01T05:24:29;20.23;;;11.63;;
14125;SDS011;7141;49.484;11.242;2023-03-01T05:26:55;25.87;;;11.87;;
14125;SDS011;7141;49.484;11.242;2023-03-01T05:29:22;22.97;;;12.40;;
14125;SDS011;7141;49.484;11.242;2023-03-01T05:31:55;26.07;;;13.27;;
14125;SDS011;7141;49.484;11.242;2023-03-01T05:34:39;25.57;;;12.47;;
14125;SDS011;7141;49.484;11.242;2023-03-01T05:37:05;28.37;;;13.47;;
14125;SDS011;7141;49.484;11.242;2023-03-01T05:39:32;28.90;;;14.83;;
14125;SDS011;7141;49.484;11.242;2023-03-01T05:41:59;25.47;;;12.77;;
14125;SDS011;7141;49.484;11.242;2023-03-01T05:44:26;26.43;;;12.33;;
14125;SDS011;7141;49.484;11.242;2023-03-01T05:46:52;24.43;;;12.13;;
14125;SDS011;7141;49.484;11.242;2023-03-01T05:49:19;25.67;;;13.30;;
14125;SDS011;7141;49.484;11.242;2023-03-01T05:51:48;23.40;;;12.77;;
14125;SDS011;7141;49.484;11.242;2023-03-01T05:54:15;25.33;;;12.13;;
14125;SDS011;7141;49.484;11.242;2023-03-01T05:56:41;26.90;;;12.97;;
14125;SDS011;7141;49.484;11.242;2023-03-01T05:59:07;25.40;;;12.43;;
14125;SDS011;7141;49.484;11.242;2023-03-01T06:01:34;23.67;;;12.70;;
14125;SDS011;7141;49.484;11.242;2023-03-01T06:04:01;21.03;;;11.73;;
14125;SDS011;7141;49.484;11.242;2023-03-01T06:06:27;24.70;;;11.83;;
14125;SDS011;7141;49.484;11.242;2023-03-01T06:08:53;21.80;;;13.07;;
14125;SDS011;7141;49.484;11.242;2023-03-01T06:11:20;23.83;;;12.90;;
14125;SDS011;7141;49.484;11.242;2023-03-01T06:13:46;25.73;;;13.13;;
14125;SDS011;7141;49.484;11.242;2023-03-01T06:16:12;21.70;;;12.53;;
14125;SDS011;7141;49.484;11.242;2023-03-01T06:18:38;26.13;;;12.27;;
14125;SDS011;7141;49.484;11.242;2023-03-01T06:21:05;22.17;;;12.43;;
14125;SDS011;7141;49.484;11.242;2023-03-01T06:23:31;23.87;;;12.27;;
14125;SDS011;7141;49.484;11.242;2023-03-01T06:25:57;21.00;;;12.73;;
14125;SDS011;7141;49.484;11.242;2023-03-01T06:28:23;24.53;;;12.83;;
14125;SDS011;7141;49.484;11.242;2023-03-01T06:30:49;22.57;;;12.33;;
14125;SDS011;7141;49.484;11.242;2023-03-01T06:33:16;23.47;;;12.23;;
14125;SDS011;7141;49.484;11.242;2023-03-01T06:35:44;31.00;;;13.60;;
14125;SDS011;7141;49.484;11.242;2023-03-01T06:38:10;22.53;;;12.23;;
14125;SDS011;7141;49.484;11.242;2023-03-01T06:40:36;26.20;;;12.47;;
14125;SDS011;7141;49.484;11.242;2023-03-01T06:43:02;24.20;;;12.87;;
14125;SDS011;7141;49.484;11.242;2023-03-01T06:45:28;23.77;;;13.37;;
14125;SDS011;7141;49.484;11.242;2023-03-01T06:48:01;22.87;;;12.93;;
14125;SDS011;7141;49.484;11.242;2023-03-01T06:50:27;20.73;;;11.73;;
14125;SDS011;7141;49.484;11.242;2023-03-01T06:52:57;23.53;;;12.93;;
14125;SDS011;7141;49.484;11.242;2023-03-01T06:55:23;25.73;;;13.03;;
14125;SDS011;7141;49.484;11.242;2023-03-01T06:57:53;25.17;;;12.40;;
14125;SDS011;7141;49.484;11.242;2023-03-01T07:00:20;24.00;;;13.23;;
14125;SDS011;7141;49.484;11.242;2023-03-01T07:02:46;26.77;;;13.47;;
14125;SDS011;7141;49.484;11.242;2023-03-01T07:05:12;25.07;;;13.10;;
14125;SDS011;7141;49.484;11.242;2023-03-01T07:07:38;25.73;;;13.97;;
14125;SDS011;7141;49.484;11.242;2023-03-01T07:10:04;26.10;;;14.07;;
14125;SDS011;7141;49.484;11.242;2023-03-01T07:12:30;23.90;;;12.40;;
14125;SDS011;7141;49.484;11.242;2023-03-01T07:14:56;21.57;;;12.40;;
14125;SDS011;7141;49.484;11.242;2023-03-01T07:17:22;24.17;;;13.00;;
14125;SDS011;7141;49.484;11.242;2023-03-01T07:19:48;25.50;;;13.67;;
14125;SDS011;7141;49.484;11.242;2023-03-01T07:22:14;22.13;;;12.80;;
14125;SDS011;7141;49.484;11.242;2023-03-01T07:24:40;22.90;;;13.80;;
14125;SDS011;7141;49.484;11.242;2023-03-01T07:27:06;25.30;;;13.00;;
14125;SDS011;7141;49.484;11.242;2023-03-01T07:29:32;24.97;;;13.50;;
14125;SDS011;7141;49.484;11.242;2023-03-01T07:32:01;23.30;;;13.53;;
14125;SDS011;7141;49.484;11.242;2023-03-01T07:34:27;21.63;;;13.33;;
14125;SDS011;7141;49.484;11.242;2023-03-01T07:36:53;27.20;;;13.83;;
14125;SDS011;7141;49.484;11.242;2023-03-01T07:39:19;19.97;;;12.47;;
14125;SDS011;7141;49.484;11.242;2023-03-01T07:41:45;25.23;;;14.33;;
14125;SDS011;7141;49.484;11.242;2023-03-01T07:44:11;25.73;;;13.77;;
14125;SDS011;7141;49.484;11.242;2023-03-01T07:46:37;23.20;;;13.33;;
14125;SDS011;7141;49.484;11.242;2023-03-01T07:49:03;24.60;;;13.33;;
14125;SDS011;7141;49.484;11.242;2023-03-01T07:51:29;27.03;;;14.73;;
14125;SDS011;7141;49.484;11.242;2023-03-01T07:53:55;28.03;;;12.97;;
14125;SDS011;7141;49.484;11.242;2023-03-01T07:56:21;23.23;;;13.43;;
14125;SDS011;7141;49.484;11.242;2023-03-01T07:58:47;24.60;;;13.93;;
14125;SDS011;7141;49.484;11.242;2023-03-01T08:01:14;24.67;;;13.80;;
14125;SDS011;7141;49.484;11.242;2023-03-01T08:03:41;27.47;;;14.63;;
14125;SDS011;7141;49.484;11.242;2023-03-01T08:06:09;21.97;;;13.30;;
14125;SDS011;7141;49.484;11.242;2023-03-01T08:08:36;25.37;;;14.17;;
14125;SDS011;7141;49.484;11.242;2023-03-01T08:11:03;23.57;;;14.37;;
14125;SDS011;7141;49.484;11.242;2023-03-01T08:13:29;28.27;;;14.20;;
14125;SDS011;7141;49.484;11.242;2023-03-01T08:16:00;24.13;;;13.20;;
14125;SDS011;7141;49.484;11.242;2023-03-01T08:18:27;29.43;;;14.33;;
14125;SDS011;7141;49.484;11.242;2023-03-01T08:20:53;23.77;;;14.13;;
14125;SDS011;7141;49.484;11.242;2023-03-01T08:23:18;24.33;;;14.23;;
14125;SDS011;7141;49.484;11.242;2023-03-01T08:25:44;25.70;;;14.27;;
14125;SDS011;7141;49.484;11.242;2023-03-01T08:28:10;27.57;;;14.77;;
14125;SDS011;7141;49.484;11.242;2023-03-01T08:30:36;24.33;;;13.47;;
14125;SDS011;7141;49.484;11.242;2023-03-01T08:33:02;25.57;;;13.77;;
14125;SDS011;7141;49.484;11.242;2023-03-01T08:35:28;22.43;;;13.50;;
14125;SDS011;7141;49.484;11.242;2023-03-01T08:37:54;24.07;;;12.67;;
14125;SDS011;7141;49.484;11.242;2023-03-01T08:40:20;22.97;;;12.83;;
14125;SDS011;7141;49.484;11.242;2023-03-01T08:42:46;24.50;;;13.63;;
14125;SDS011;7141;49.484;11.242;2023-03-01T08:45:12;26.43;;;13.50;;
14125;SDS011;7141;49.484;11.242;2023-03-01T08:47:43;24.13;;;13.93;;
14125;SDS011;7141;49.484;11.242;2023-03-01T08:50:09;25.73;;;13.93;;
14125;SDS011;7141;49.484;11.242;2023-03-01T08:52:35;21.97;;;13.23;;
14125;SDS011;7141;49.484;11.242;2023-03-01T08:55:01;24.83;;;14.13;;
14125;SDS011;7141;49.484;11.242;2023-03-01T08:57:27;22.67;;;13.70;;
14125;SDS011;7141;49.484;11.242;2023-03-01T08:59:53;22.50;;;13.53;;
14125;SDS011;7141;49.484;11.242;2023-03-01T09:02:21;24.80;;;13.63;;
14125;SDS011;7141;49.484;11.242;2023-03-01T09:04:47;24.63;;;13.77;;
14125;SDS011;7141;49.484;11.242;2023-03-01T09:07:13;24.30;;;14.50;;
14125;SDS011;7141;49.484;11.242;2023-03-01T09:09:39;23.53;;;13.33;;
14125;SDS011;7141;49.484;11.242;2023-03-01T09:12:05;27.87;;;14.13;;
14125;SDS011;7141;49.484;11.242;2023-03-01T09:14:31;22.80;;;12.83;;
14125;SDS011;7141;49.484;11.242;2023-03-01T09:16:57;23.90;;;13.67;;
14125;SDS011;7141;49.484;11.242;2023-03-01T09:19:23;26.67;;;15.00;;
14125;SDS011;7141;49.484;11.242;2023-03-01T09:21:49;23.67;;;13.83;;
14125;SDS011;7141;49.484;11.242;2023-03-01T09:24:19;24.87;;;14.17;;
14125;SDS011;7141;49.484;11.242;2023-03-01T09:26:45;22.20;;;13.23;;
14125;SDS011;7141;49.484;11.242;2023-03-01T09:29:11;24.53;;;13.27;;
14125;SDS011;7141;49.484;11.242;2023-03-01T09:31:38;22.60;;;13.37;;
14125;SDS011;7141;49.484;11.242;2023-03-01T09:34:04;22.07;;;13.10;;
14125;SDS011;7141;49.484;11.242;2023-03-01T09:36:30;27.20;;;13.80;;
14125;SDS011;7141;49.484;11.242;2023-03-01T09:38:59;29.33;;;15.20;;
14125;SDS011;7141;49.484;11.242;2023-03-01T09:46:46;27.63;;;14.63;;
14125;SDS011;7141;49.484;11.242;2023-03-01T09:49:22;23.03;;;13.80;;
14125;SDS011;7141;49.484;11.242;2023-03-01T09:51:59;25.03;;;14.33;;
14125;SDS011;7141;49.484;11.242;2023-03-01T09:54:26;25.40;;;14.13;;
14125;SDS011;7141;49.484;11.242;2023-03-01T09:56:56;24.43;;;13.50;;
14125;SDS011;7141;49.484;11.242;2023-03-01T10:00:28;26.87;;;13.73;;
14125;SDS011;7141;49.484;11.242;2023-03-01T10:05:05;26.17;;;15.27;;
14125;SDS011;7141;49.484;11.242;2023-03-01T10:10:07;25.20;;;13.47;;
14125;SDS011;7141;49.484;11.242;2023-03-01T10:12:40;23.70;;;13.17;;
14125;SDS011;7141;49.484;11.242;2023-03-01T10:15:22;26.67;;;14.67;;
14125;SDS011;7141;49.484;11.242;2023-03-01T10:17:52;23.67;;;13.63;;
14125;SDS011;7141;49.484;11.242;2023-03-01T10:20:22;25.97;;;14.00;;
14125;SDS011;7141;49.484;11.242;2023-03-01T10:22:49;23.00;;;13.27;;
14125;SDS011;7141;49.484;11.242;2023-03-01T10:25:20;22.03;;;12.80;;
14125;SDS011;7141;49.484;11.242;2023-03-01T10:27:53;24.50;;;13.37;;
14125;SDS011;7141;49.484;11.242;2023-03-01T10:30:30;21.00;;;13.23;;
14125;SDS011;7141;49.484;11.242;2023-03-01T10:32:58;22.20;;;13.43;;
14125;SDS011;7141;49.484;11.242;2023-03-01T10:35:25;22.80;;;14.27;;
14125;SDS011;7141;49.484;11.242;2023-03-01T10:38:02;22.43;;;13.50;;
14125;SDS011;7141;49.484;11.242;2023-03-01T10:40:28;25.13;;;14.50;;
14125;SDS011;7141;49.484;11.242;2023-03-01T10:42:54;23.60;;;13.80;;
14125;SDS011;7141;49.484;11.242;2023-03-01T10:48:14;22.10;;;13.23;;
14125;SDS011;7141;49.484;11.242;2023-03-01T10:50:44;19.23;;;12.50;;
14125;SDS011;7141;49.484;11.242;2023-03-01T10:56:01;22.33;;;13.20;;
14125;SDS011;7141;49.484;11.242;2023-03-01T10:58:28;22.73;;;13.40;;
14125;SDS011;7141;49.484;11.242;2023-03-01T11:00:56;20.43;;;12.33;;
14125;SDS011;7141;49.484;11.242;2023-03-01T11:03:27;23.43;;;12.97;;
14125;SDS011;7141;49.484;11.242;2023-03-01T11:08:29;19.80;;;12.33;;
14125;SDS011;7141;49.484;11.242;2023-03-01T11:13:54;19.43;;;12.30;;
14125;SDS011;7141;49.484;11.242;2023-03-01T11:16:24;21.93;;;12.77;;
14125;SDS011;7141;49.484;11.242;2023-03-01T11:19:01;24.30;;;12.67;;
14125;SDS011;7141;49.484;11.242;2023-03-01T11:21:30;21.20;;;12.20;;
14125;SDS011;7141;49.484;11.242;2023-03-01T11:23:59;21.00;;;12.27;;
14125;SDS011;7141;49.484;11.242;2023-03-01T11:26:27;20.13;;;12.47;;
14125;SDS011;7141;49.484;11.242;2023-03-01T11:28:55;20.60;;;11.97;;
14125;SDS011;7141;49.484;11.242;2023-03-01T11:31:22;17.60;;;11.43;;
14125;SDS011;7141;49.484;11.242;2023-03-01T11:34:11;26.67;;;14.03;;
14125;SDS011;7141;49.484;11.242;2023-03-01T11:36:42;18.80;;;11.30;;
14125;SDS011;7141;49.484;11.242;2023-03-01T11:41:39;22.27;;;11.93;;
14125;SDS011;7141;49.484;11.242;2023-03-01T11:44:14;21.30;;;12.30;;
14125;SDS011;7141;49.484;11.242;2023-03-01T11:46:57;20.63;;;11.03;;
14125;SDS011;7141;49.484;11.242;2023-03-01T11:59:56;18.77;;;11.57;;
14125;SDS011;7141;49.484;11.242;2023-03-01T12:07:36;23.00;;;12.17;;
14125;SDS011;7141;49.484;11.242;2023-03-01T12:10:23;22.57;;;11.50;;
14125;SDS011;7141;49.484;11.242;2023-03-01T12:22:54;22.20;;;13.17;;
14125;SDS011;7141;49.484;11.242;2023-03-01T12:33:04;19.10;;;11.30;;
14125;SDS011;7141;49.484;11.242;2023-03-01T12:49:08;16.27;;;10.50;;
14125;SDS011;7141;49.484;11.242;2023-03-01T12:51:36;15.10;;;10.27;;
14125;SDS011;7141;49.484;11.242;2023-03-01T12:54:16;16.97;;;11.20;;
14125;SDS011;7141;49.484;11.242;2023-03-01T12:56:46;19.23;;;10.73;;
14125;SDS011;7141;49.484;11.242;2023-03-01T13:02:03;16.37;;;10.70;;
14125;SDS011;7141;49.484;11.242;2023-03-01T13:09:39;16.53;;;10.17;;
14125;SDS011;7141;49.484;11.242;2023-03-01T13:14:53;15.40;;;10.97;;
14125;SDS011;7141;49.484;11.242;2023-03-01T13:17:30;15.93;;;10.53;;
14125;SDS011;7141;49.484;11.242;2023-03-01T13:19:57;17.93;;;11.30;;
14125;SDS011;7141;49.484;11.242;2023-03-01T13:22:28;14.33;;;9.77;;
14125;SDS011;7141;49.484;11.242;2023-03-01T13:25:13;15.57;;;10.17;;
14125;SDS011;7141;49.484;11.242;2023-03-01T13:27:39;17.20;;;10.57;;
14125;SDS011;7141;49.484;11.242;2023-03-01T13:30:12;15.77;;;9.67;;
14125;SDS011;7141;49.484;11.242;2023-03-01T13:32:52;15.33;;;10.03;;
14125;SDS011;7141;49.484;11.242;2023-03-01T13:37:44;15.70;;;9.77;;
14125;SDS011;7141;49.484;11.242;2023-03-01T13:42:47;15.70;;;10.03;;
14125;SDS011;7141;49.484;11.242;2023-03-01T13:47:45;16.53;;;9.90;;
14125;SDS011;7141;49.484;11.242;2023-03-01T13:50:21;15.43;;;9.10;;
14125;SDS011;7141;49.484;11.242;2023-03-01T13:52:53;20.20;;;10.47;;
14125;SDS011;7141;49.484;11.242;2023-03-01T13:55:23;16.10;;;10.77;;
14125;SDS011;7141;49.484;11.242;2023-03-01T13:57:51;16.33;;;9.53;;
14125;SDS011;7141;49.484;11.242;2023-03-01T14:00:32;16.50;;;10.50;;
14125;SDS011;7141;49.484;11.242;2023-03-01T14:02:59;12.60;;;9.40;;
14125;SDS011;7141;49.484;11.242;2023-03-01T14:05:25;18.07;;;10.87;;
14125;SDS011;7141;49.484;11.242;2023-03-01T14:07:51;17.17;;;10.00;;
14125;SDS011;7141;49.484;11.242;2023-03-01T14:10:17;16.60;;;10.03;;
14125;SDS011;7141;49.484;11.242;2023-03-01T14:20:32;14.23;;;9.97;;
14125;SDS011;7141;49.484;11.242;2023-03-01T14:23:01;17.47;;;11.17;;
14125;SDS011;7141;49.484;11.242;2023-03-01T14:25:29;15.97;;;9.60;;
14125;SDS011;7141;49.484;11.242;2023-03-01T14:28:16;18.13;;;9.57;;
14125;SDS011;7141;49.484;11.242;2023-03-01T14:30:43;15.47;;;10.37;;
14125;SDS011;7141;49.484;11.242;2023-03-01T14:33:24;18.90;;;10.83;;
14125;SDS011;7141;49.484;11.242;2023-03-01T14:35:56;19.03;;;10.27;;
14125;SDS011;7141;49.484;11.242;2023-03-01T14:38:23;15.30;;;10.23;;
14125;SDS011;7141;49.484;11.242;2023-03-01T14:40:51;19.80;;;10.93;;
14125;SDS011;7141;49.484;11.242;2023-03-01T14:43:18;19.77;;;11.23;;
14125;SDS011;7141;49.484;11.242;2023-03-01T14:45:48;16.03;;;11.00;;
14125;SDS011;7141;49.484;11.242;2023-03-01T14:48:14;14.63;;;10.03;;
14125;SDS011;7141;49.484;11.242;2023-03-01T14:50:41;16.60;;;10.47;;
14125;SDS011;7141;49.484;11.242;2023-03-01T14:53:07;15.50;;;10.00;;
14125;SDS011;7141;49.484;11.242;2023-03-01T14:55:41;14.87;;;9.67;;
14125;SDS011;7141;49.484;11.242;2023-03-01T14:58:12;15.00;;;10.03;;
14125;SDS011;7141;49.484;11.242;2023-03-01T15:00:38;20.43;;;10.00;;
14125;SDS011;7141;49.484;11.242;2023-03-01T15:03:08;16.70;;;10.50;;
14125;SDS011;7141;49.484;11.242;2023-03-01T15:05:38;19.27;;;10.07;;
14125;SDS011;7141;49.484;11.242;2023-03-01T15:08:05;17.07;;;9.87;;
14125;SDS011;7141;49.484;11.242;2023-03-01T15:10:33;15.33;;;9.47;;
14125;SDS011;7141;49.484;11.242;2023-03-01T15:15:38;13.27;;;8.80;;
14125;SDS011;7141;49.484;11.242;2023-03-01T15:18:13;15.63;;;9.10;;
14125;SDS011;7141;49.484;11.242;2023-03-01T15:20:40;13.23;;;9.20;;
14125;SDS011;7141;49.484;11.242;2023-03-01T15:23:06;13.20;;;9.17;;
14125;SDS011;7141;49.484;11.242;2023-03-01T15:25:43;14.10;;;9.27;;
14125;SDS011;7141;49.484;11.242;2023-03-01T15:28:12;14.87;;;9.30;;
14125;SDS011;7141;49.484;11.242;2023-03-01T15:30:43;15.23;;;8.43;;
14125;SDS011;7141;49.484;11.242;2023-03-01T15:33:16;14.83;;;8.97;;
14125;SDS011;7141;49.484;11.242;2023-03-01T15:35:44;12.60;;;8.37;;
14125;SDS011;7141;49.484;11.242;2023-03-01T15:38:32;15.07;;;9.50;;
14125;SDS011;7141;49.484;11.242;2023-03-01T15:41:00;14.60;;;9.17;;
14125;SDS011;7141;49.484;11.242;2023-03-01T15:43:36;20.67;;;12.53;;
14125;SDS011;7141;49.484;11.242;2023-03-01T15:46:03;21.30;;;9.97;;
14125;SDS011;7141;49.484;11.242;2023-03-01T15:48:29;14.73;;;9.43;;
14125;SDS011;7141;49.484;11.242;2023-03-01T15:50:56;17.97;;;9.30;;
14125;SDS011;7141;49.484;11.242;2023-03-01T15:53:23;16.67;;;9.27;;
14125;SDS011;7141;49.484;11.242;2023-03-01T15:55:49;14.67;;;9.23;;
14125;SDS011;7141;49.484;11.242;2023-03-01T16:00:41;16.10;;;9.43;;
14125;SDS011;7141;49.484;11.242;2023-03-01T16:03:08;13.87;;;9.53;;
14125;SDS011;7141;49.484;11.242;2023-03-01T16:05:36;17.13;;;10.30;;
14125;SDS011;7141;49.484;11.242;2023-03-01T16:08:03;16.53;;;9.63;;
14125;SDS011;7141;49.484;11.242;2023-03-01T16:10:30;16.43;;;9.97;;
14125;SDS011;7141;49.484;11.242;2023-03-01T16:12:57;14.63;;;9.73;;
14125;SDS011;7141;49.484;11.242;2023-03-01T16:15:24;16.60;;;9.57;;
14125;SDS011;7141;49.484;11.242;2023-03-01T16:17:50;17.23;;;10.43;;
14125;SDS011;7141;49.484;11.242;2023-03-01T16:20:20;20.27;;;11.07;;
14125;SDS011;7141;49.484;11.242;2023-03-01T16:22:46;16.13;;;10.70;;
14125;SDS011;7141;49.484;11.242;2023-03-01T16:25:13;19.73;;;11.03;;